sensor_id;sensor_type;location;lat;lon;timestamp;P1;durP1;ratioP1;P2;durP2;ratioP2
17345;SDS011;8790;53.590;10.002;2022-07-06T00:01:10;3.53;;;1.60;;
17345;SDS011;8790;53.590;10.002;2022-07-06T00:03:42;3.50;;;1.40;;
17345;SDS011;8790;53.590;10.002;2022-07-06T00:06:14;6.37;;;1.77;;
17345;SDS011;8790;53.590;10.002;2022-07-06T00:08:47;5.07;;;1.70;;
17345;SDS011;8790;53.590;10.002;2022-07-06T00:11:20;3.77;;;1.40;;
17345;SDS011;8790;53.590;10.002;2022-07-06T00:13:52;2.97;;;1.23;;
17345;SDS011;8790;53.590;10.002;2022-07-06T00:16:26;5.17;;;1.20;;
17345;SDS011;8790;53.590;10.002;2022-07-06T00:18:58;4.80;;;1.60;;
17345;SDS011;8790;53.590;10.002;2022-07-06T00:21:30;5.53;;;1.40;;
17345;SDS011;8790;53.590;10.002;2022-07-06T00:24:02;3.03;;;1.40;;
17345;SDS011;8790;53.590;10.002;2022-07-06T00:26:35;3.47;;;1.30;;
17345;SDS011;8790;53.590;10.002;2022-07-06T00:29:07;4.90;;;1.60;;
17345;SDS011;8790;53.590;10.002;2022-07-06T00:31:39;3.53;;;1.23;;
17345;SDS011;8790;53.590;10.002;2022-07-06T00:34:11;4.17;;;1.40;;
17345;SDS011;8790;53.590;10.002;2022-07-06T00:36:44;3.77;;;1.23;;
17345;SDS011;8790;53.590;10.002;2022-07-06T00:39:16;3.87;;;1.40;;
17345;SDS011;8790;53.590;10.002;2022-07-06T00:41:50;4.37;;;1.60;;
17345;SDS011;8790;53.590;10.002;2022-07-06T00:44:21;3.77;;;1.63;;
17345;SDS011;8790;53.590;10.002;2022-07-06T00:46:53;2.33;;;1.30;;
17345;SDS011;8790;53.590;10.002;2022-07-06T00:49:25;3.63;;;1.47;;
17345;SDS011;8790;53.590;10.002;2022-07-06T00:52:14;3.93;;;1.20;;
17345;SDS011;8790;53.590;10.002;2022-07-06T00:54:46;3.13;;;1.50;;
17345;SDS011;8790;53.590;10.002;2022-07-06T00:57:19;4.90;;;1.40;;
17345;SDS011;8790;53.590;10.002;2022-07-06T00:59:51;1.93;;;1.10;;
17345;SDS011;8790;53.590;10.002;2022-07-06T01:02:23;3.73;;;1.20;;
17345;SDS011;8790;53.590;10.002;2022-07-06T01:04:55;3.57;;;1.23;;
17345;SDS011;8790;53.590;10.002;2022-07-06T01:07:26;4.50;;;1.33;;
17345;SDS011;8790;53.590;10.002;2022-07-06T01:09:59;3.87;;;1.30;;
17345;SDS011;8790;53.590;10.002;2022-07-06T01:12:32;5.47;;;1.30;;
17345;SDS011;8790;53.590;10.002;2022-07-06T01:15:07;3.33;;;1.47;;
17345;SDS011;8790;53.590;10.002;2022-07-06T01:17:41;4.87;;;1.53;;
17345;SDS011;8790;53.590;10.002;2022-07-06T01:20:15;4.47;;;1.20;;
17345;SDS011;8790;53.590;10.002;2022-07-06T01:22:48;5.13;;;1.60;;
17345;SDS011;8790;53.590;10.002;2022-07-06T01:25:21;4.67;;;1.70;;
17345;SDS011;8790;53.590;10.002;2022-07-06T01:27:53;3.67;;;1.27;;
17345;SDS011;8790;53.590;10.002;2022-07-06T01:30:25;5.43;;;1.30;;
17345;SDS011;8790;53.590;10.002;2022-07-06T01:32:57;4.77;;;1.43;;
17345;SDS011;8790;53.590;10.002;2022-07-06T01:35:30;3.87;;;1.40;;
17345;SDS011;8790;53.590;10.002;2022-07-06T01:38:04;4.00;;;1.30;;
17345;SDS011;8790;53.590;10.002;2022-07-06T01:40:36;3.27;;;1.47;;
17345;SDS011;8790;53.590;10.002;2022-07-06T01:43:08;3.93;;;1.50;;
17345;SDS011;8790;53.590;10.002;2022-07-06T01:45:40;2.43;;;1.30;;
17345;SDS011;8790;53.590;10.002;2022-07-06T01:48:11;3.80;;;1.40;;
17345;SDS011;8790;53.590;10.002;2022-07-06T01:50:45;4.60;;;1.70;;
17345;SDS011;8790;53.590;10.002;2022-07-06T01:53:16;3.30;;;1.20;;
17345;SDS011;8790;53.590;10.002;2022-07-06T01:55:48;1.70;;;1.13;;
17345;SDS011;8790;53.590;10.002;2022-07-06T01:58:20;3.40;;;1.37;;
17345;SDS011;8790;53.590;10.002;2022-07-06T02:00:52;3.20;;;1.40;;
17345;SDS011;8790;53.590;10.002;2022-07-06T02:03:24;2.93;;;1.20;;
17345;SDS011;8790;53.590;10.002;2022-07-06T02:05:57;4.87;;;1.33;;
17345;SDS011;8790;53.590;10.002;2022-07-06T02:08:29;5.50;;;1.53;;
17345;SDS011;8790;53.590;10.002;2022-07-06T02:11:01;3.10;;;1.37;;
17345;SDS011;8790;53.590;10.002;2022-07-06T02:13:34;3.03;;;1.47;;
17345;SDS011;8790;53.590;10.002;2022-07-06T02:16:07;5.17;;;1.50;;
17345;SDS011;8790;53.590;10.002;2022-07-06T02:18:39;4.27;;;1.40;;
17345;SDS011;8790;53.590;10.002;2022-07-06T02:21:13;3.37;;;1.40;;
17345;SDS011;8790;53.590;10.002;2022-07-06T02:23:44;3.87;;;1.43;;
17345;SDS011;8790;53.590;10.002;2022-07-06T02:26:16;4.40;;;1.40;;
17345;SDS011;8790;53.590;10.002;2022-07-06T02:28:49;3.13;;;1.50;;
17345;SDS011;8790;53.590;10.002;2022-07-06T02:31:21;3.20;;;1.30;;
17345;SDS011;8790;53.590;10.002;2022-07-06T02:33:53;3.20;;;1.33;;
17345;SDS011;8790;53.590;10.002;2022-07-06T02:36:26;3.90;;;1.47;;
17345;SDS011;8790;53.590;10.002;2022-07-06T02:38:58;2.87;;;1.47;;
17345;SDS011;8790;53.590;10.002;2022-07-06T02:41:31;3.93;;;1.40;;
17345;SDS011;8790;53.590;10.002;2022-07-06T02:44:03;3.67;;;1.30;;
17345;SDS011;8790;53.590;10.002;2022-07-06T02:46:35;4.77;;;1.40;;
17345;SDS011;8790;53.590;10.002;2022-07-06T02:49:07;2.73;;;1.40;;
17345;SDS011;8790;53.590;10.002;2022-07-06T02:51:40;3.70;;;1.50;;
17345;SDS011;8790;53.590;10.002;2022-07-06T02:54:12;5.07;;;1.43;;
17345;SDS011;8790;53.590;10.002;2022-07-06T02:56:43;5.13;;;1.63;;
17345;SDS011;8790;53.590;10.002;2022-07-06T02:59:21;5.33;;;1.47;;
17345;SDS011;8790;53.590;10.002;2022-07-06T03:01:53;3.83;;;1.30;;
17345;SDS011;8790;53.590;10.002;2022-07-06T03:04:25;3.50;;;1.07;;
17345;SDS011;8790;53.590;10.002;2022-07-06T03:06:59;2.97;;;1.17;;
17345;SDS011;8790;53.590;10.002;2022-07-06T03:09:31;3.13;;;1.23;;
17345;SDS011;8790;53.590;10.002;2022-07-06T03:12:03;1.93;;;1.20;;
17345;SDS011;8790;53.590;10.002;2022-07-06T03:14:37;4.50;;;1.30;;
17345;SDS011;8790;53.590;10.002;2022-07-06T03:17:09;3.23;;;1.17;;
17345;SDS011;8790;53.590;10.002;2022-07-06T03:19:41;1.97;;;1.10;;
17345;SDS011;8790;53.590;10.002;2022-07-06T03:22:15;4.60;;;1.40;;
17345;SDS011;8790;53.590;10.002;2022-07-06T03:24:47;2.10;;;1.10;;
17345;SDS011;8790;53.590;10.002;2022-07-06T03:27:19;4.40;;;1.33;;
17345;SDS011;8790;53.590;10.002;2022-07-06T03:29:51;7.23;;;1.60;;
17345;SDS011;8790;53.590;10.002;2022-07-06T03:32:24;4.37;;;1.67;;
17345;SDS011;8790;53.590;10.002;2022-07-06T03:34:56;6.37;;;1.70;;
17345;SDS011;8790;53.590;10.002;2022-07-06T03:37:29;6.03;;;1.80;;
17345;SDS011;8790;53.590;10.002;2022-07-06T03:40:01;5.43;;;1.70;;
17345;SDS011;8790;53.590;10.002;2022-07-06T03:42:33;3.83;;;1.40;;
17345;SDS011;8790;53.590;10.002;2022-07-06T03:45:06;3.67;;;1.80;;
17345;SDS011;8790;53.590;10.002;2022-07-06T03:47:39;5.03;;;1.40;;
17345;SDS011;8790;53.590;10.002;2022-07-06T03:50:12;4.37;;;1.60;;
17345;SDS011;8790;53.590;10.002;2022-07-06T03:52:46;5.40;;;1.37;;
17345;SDS011;8790;53.590;10.002;2022-07-06T03:55:18;5.40;;;1.40;;
17345;SDS011;8790;53.590;10.002;2022-07-06T03:57:55;5.63;;;1.70;;
17345;SDS011;8790;53.590;10.002;2022-07-06T04:00:28;4.90;;;1.70;;
17345;SDS011;8790;53.590;10.002;2022-07-06T04:03:05;4.87;;;1.80;;
17345;SDS011;8790;53.590;10.002;2022-07-06T04:05:44;4.37;;;1.70;;
17345;SDS011;8790;53.590;10.002;2022-07-06T04:08:17;2.63;;;1.30;;
17345;SDS011;8790;53.590;10.002;2022-07-06T04:10:55;4.23;;;1.37;;
17345;SDS011;8790;53.590;10.002;2022-07-06T04:13:27;5.07;;;1.60;;
17345;SDS011;8790;53.590;10.002;2022-07-06T04:15:59;3.50;;;1.27;;
17345;SDS011;8790;53.590;10.002;2022-07-06T04:18:31;2.13;;;1.20;;
17345;SDS011;8790;53.590;10.002;2022-07-06T04:21:03;3.07;;;1.30;;
17345;SDS011;8790;53.590;10.002;2022-07-06T04:23:39;4.87;;;1.20;;
17345;SDS011;8790;53.590;10.002;2022-07-06T04:26:13;3.77;;;1.10;;
17345;SDS011;8790;53.590;10.002;2022-07-06T04:28:45;4.13;;;1.27;;
17345;SDS011;8790;53.590;10.002;2022-07-06T04:31:18;2.23;;;1.00;;
17345;SDS011;8790;53.590;10.002;2022-07-06T04:33:53;2.43;;;1.23;;
17345;SDS011;8790;53.590;10.002;2022-07-06T04:36:25;2.83;;;1.00;;
17345;SDS011;8790;53.590;10.002;2022-07-06T04:39:00;3.17;;;1.30;;
17345;SDS011;8790;53.590;10.002;2022-07-06T04:41:32;3.17;;;1.10;;
17345;SDS011;8790;53.590;10.002;2022-07-06T04:44:04;2.93;;;1.37;;
17345;SDS011;8790;53.590;10.002;2022-07-06T04:46:36;3.53;;;1.20;;
17345;SDS011;8790;53.590;10.002;2022-07-06T04:49:07;2.03;;;1.07;;
17345;SDS011;8790;53.590;10.002;2022-07-06T04:51:40;3.13;;;1.20;;
17345;SDS011;8790;53.590;10.002;2022-07-06T04:54:13;4.67;;;1.60;;
17345;SDS011;8790;53.590;10.002;2022-07-06T04:56:45;7.13;;;1.70;;
17345;SDS011;8790;53.590;10.002;2022-07-06T04:59:18;3.70;;;1.20;;
17345;SDS011;8790;53.590;10.002;2022-07-06T05:01:50;5.57;;;1.30;;
17345;SDS011;8790;53.590;10.002;2022-07-06T05:04:22;6.30;;;1.30;;
17345;SDS011;8790;53.590;10.002;2022-07-06T05:06:54;3.70;;;1.37;;
17345;SDS011;8790;53.590;10.002;2022-07-06T05:09:28;3.23;;;1.40;;
17345;SDS011;8790;53.590;10.002;2022-07-06T05:12:01;3.43;;;1.13;;
17345;SDS011;8790;53.590;10.002;2022-07-06T05:14:33;2.07;;;1.03;;
17345;SDS011;8790;53.590;10.002;2022-07-06T05:17:05;5.37;;;1.40;;
17345;SDS011;8790;53.590;10.002;2022-07-06T05:19:38;3.30;;;1.30;;
17345;SDS011;8790;53.590;10.002;2022-07-06T05:22:10;4.07;;;1.40;;
17345;SDS011;8790;53.590;10.002;2022-07-06T05:24:43;4.27;;;1.30;;
17345;SDS011;8790;53.590;10.002;2022-07-06T05:27:15;4.13;;;1.50;;
17345;SDS011;8790;53.590;10.002;2022-07-06T05:29:47;4.23;;;1.40;;
17345;SDS011;8790;53.590;10.002;2022-07-06T05:32:29;2.63;;;1.60;;
17345;SDS011;8790;53.590;10.002;2022-07-06T05:35:05;3.20;;;1.37;;
17345;SDS011;8790;53.590;10.002;2022-07-06T05:37:55;4.57;;;1.43;;
17345;SDS011;8790;53.590;10.002;2022-07-06T05:40:37;2.33;;;1.20;;
17345;SDS011;8790;53.590;10.002;2022-07-06T05:43:23;4.43;;;1.80;;
17345;SDS011;8790;53.590;10.002;2022-07-06T05:46:02;4.37;;;1.30;;
17345;SDS011;8790;53.590;10.002;2022-07-06T05:48:40;5.20;;;1.60;;
17345;SDS011;8790;53.590;10.002;2022-07-06T05:51:40;4.60;;;1.80;;
17345;SDS011;8790;53.590;10.002;2022-07-06T05:54:24;4.90;;;1.70;;
17345;SDS011;8790;53.590;10.002;2022-07-06T05:56:59;8.10;;;1.73;;
17345;SDS011;8790;53.590;10.002;2022-07-06T05:59:34;3.37;;;1.50;;
17345;SDS011;8790;53.590;10.002;2022-07-06T06:02:06;3.90;;;1.33;;
17345;SDS011;8790;53.590;10.002;2022-07-06T06:04:47;4.90;;;1.43;;
17345;SDS011;8790;53.590;10.002;2022-07-06T06:07:24;4.63;;;1.50;;
17345;SDS011;8790;53.590;10.002;2022-07-06T06:10:09;4.60;;;1.20;;
17345;SDS011;8790;53.590;10.002;2022-07-06T06:13:04;5.10;;;1.27;;
17345;SDS011;8790;53.590;10.002;2022-07-06T06:15:37;4.27;;;1.23;;
17345;SDS011;8790;53.590;10.002;2022-07-06T06:18:16;3.57;;;1.30;;
17345;SDS011;8790;53.590;10.002;2022-07-06T06:20:56;5.37;;;1.30;;
17345;SDS011;8790;53.590;10.002;2022-07-06T06:23:32;2.73;;;1.03;;
17345;SDS011;8790;53.590;10.002;2022-07-06T06:26:16;5.03;;;1.30;;
17345;SDS011;8790;53.590;10.002;2022-07-06T06:28:54;2.90;;;1.27;;
17345;SDS011;8790;53.590;10.002;2022-07-06T06:31:28;5.80;;;1.50;;
17345;SDS011;8790;53.590;10.002;2022-07-06T06:34:06;3.30;;;1.30;;
17345;SDS011;8790;53.590;10.002;2022-07-06T06:36:43;3.97;;;1.13;;
17345;SDS011;8790;53.590;10.002;2022-07-06T06:39:33;3.87;;;1.07;;
17345;SDS011;8790;53.590;10.002;2022-07-06T06:42:16;4.33;;;1.13;;
17345;SDS011;8790;53.590;10.002;2022-07-06T06:45:05;4.27;;;1.20;;
17345;SDS011;8790;53.590;10.002;2022-07-06T06:47:50;2.37;;;1.10;;
17345;SDS011;8790;53.590;10.002;2022-07-06T06:50:31;3.20;;;1.27;;
17345;SDS011;8790;53.590;10.002;2022-07-06T06:53:15;2.27;;;1.10;;
17345;SDS011;8790;53.590;10.002;2022-07-06T06:56:03;2.67;;;1.13;;
17345;SDS011;8790;53.590;10.002;2022-07-06T06:59:04;3.33;;;1.20;;
17345;SDS011;8790;53.590;10.002;2022-07-06T07:01:44;3.60;;;1.10;;
17345;SDS011;8790;53.590;10.002;2022-07-06T07:04:24;3.93;;;1.40;;
17345;SDS011;8790;53.590;10.002;2022-07-06T07:07:02;3.23;;;1.10;;
17345;SDS011;8790;53.590;10.002;2022-07-06T07:09:40;3.77;;;1.20;;
17345;SDS011;8790;53.590;10.002;2022-07-06T07:12:13;4.20;;;1.10;;
17345;SDS011;8790;53.590;10.002;2022-07-06T07:14:48;4.23;;;1.30;;
17345;SDS011;8790;53.590;10.002;2022-07-06T07:17:33;5.33;;;1.40;;
17345;SDS011;8790;53.590;10.002;2022-07-06T07:20:09;2.70;;;1.10;;
17345;SDS011;8790;53.590;10.002;2022-07-06T07:22:51;5.60;;;1.20;;
17345;SDS011;8790;53.590;10.002;2022-07-06T07:25:28;3.10;;;1.10;;
17345;SDS011;8790;53.590;10.002;2022-07-06T07:28:00;3.13;;;1.40;;
17345;SDS011;8790;53.590;10.002;2022-07-06T07:30:32;3.70;;;1.10;;
17345;SDS011;8790;53.590;10.002;2022-07-06T07:33:05;3.07;;;1.07;;
17345;SDS011;8790;53.590;10.002;2022-07-06T07:35:36;1.53;;;0.93;;
17345;SDS011;8790;53.590;10.002;2022-07-06T07:38:08;2.67;;;1.07;;
17345;SDS011;8790;53.590;10.002;2022-07-06T07:40:40;3.33;;;1.00;;
17345;SDS011;8790;53.590;10.002;2022-07-06T07:43:12;2.40;;;0.87;;
17345;SDS011;8790;53.590;10.002;2022-07-06T07:45:43;2.33;;;0.70;;
17345;SDS011;8790;53.590;10.002;2022-07-06T07:48:16;2.70;;;0.93;;
17345;SDS011;8790;53.590;10.002;2022-07-06T07:50:48;4.13;;;0.97;;
17345;SDS011;8790;53.590;10.002;2022-07-06T07:53:20;1.70;;;0.80;;
17345;SDS011;8790;53.590;10.002;2022-07-06T07:55:52;3.63;;;0.90;;
17345;SDS011;8790;53.590;10.002;2022-07-06T07:58:23;2.53;;;1.27;;
17345;SDS011;8790;53.590;10.002;2022-07-06T08:00:55;1.80;;;0.70;;
17345;SDS011;8790;53.590;10.002;2022-07-06T08:03:30;2.97;;;0.70;;
17345;SDS011;8790;53.590;10.002;2022-07-06T08:06:02;4.07;;;0.90;;
17345;SDS011;8790;53.590;10.002;2022-07-06T08:08:34;2.37;;;1.00;;
17345;SDS011;8790;53.590;10.002;2022-07-06T08:11:05;2.77;;;1.00;;
17345;SDS011;8790;53.590;10.002;2022-07-06T08:13:38;1.97;;;0.80;;
17345;SDS011;8790;53.590;10.002;2022-07-06T08:16:09;3.60;;;0.90;;
17345;SDS011;8790;53.590;10.002;2022-07-06T08:18:43;1.53;;;0.67;;
17345;SDS011;8790;53.590;10.002;2022-07-06T08:21:14;3.17;;;1.03;;
17345;SDS011;8790;53.590;10.002;2022-07-06T08:23:46;2.37;;;1.10;;
17345;SDS011;8790;53.590;10.002;2022-07-06T08:26:18;3.63;;;1.00;;
17345;SDS011;8790;53.590;10.002;2022-07-06T08:28:50;2.37;;;0.97;;
17345;SDS011;8790;53.590;10.002;2022-07-06T08:31:22;1.93;;;0.77;;
17345;SDS011;8790;53.590;10.002;2022-07-06T08:33:55;2.53;;;1.00;;
17345;SDS011;8790;53.590;10.002;2022-07-06T08:36:27;4.10;;;1.10;;
17345;SDS011;8790;53.590;10.002;2022-07-06T08:38:59;2.87;;;0.90;;
17345;SDS011;8790;53.590;10.002;2022-07-06T08:41:31;3.13;;;0.90;;
17345;SDS011;8790;53.590;10.002;2022-07-06T08:44:02;3.53;;;1.47;;
17345;SDS011;8790;53.590;10.002;2022-07-06T08:46:35;2.90;;;1.10;;
17345;SDS011;8790;53.590;10.002;2022-07-06T08:49:13;5.33;;;2.23;;
17345;SDS011;8790;53.590;10.002;2022-07-06T08:51:47;2.47;;;1.80;;
17345;SDS011;8790;53.590;10.002;2022-07-06T08:54:19;3.80;;;1.30;;
17345;SDS011;8790;53.590;10.002;2022-07-06T08:56:53;3.10;;;1.00;;
17345;SDS011;8790;53.590;10.002;2022-07-06T08:59:24;2.90;;;1.10;;
17345;SDS011;8790;53.590;10.002;2022-07-06T09:01:57;2.00;;;0.80;;
17345;SDS011;8790;53.590;10.002;2022-07-06T09:04:32;5.23;;;3.83;;
17345;SDS011;8790;53.590;10.002;2022-07-06T09:07:06;1.80;;;1.30;;
17345;SDS011;8790;53.590;10.002;2022-07-06T09:09:38;2.23;;;1.13;;
17345;SDS011;8790;53.590;10.002;2022-07-06T09:12:11;3.20;;;1.00;;
17345;SDS011;8790;53.590;10.002;2022-07-06T09:14:44;3.43;;;1.70;;
17345;SDS011;8790;53.590;10.002;2022-07-06T09:17:15;1.70;;;1.00;;
17345;SDS011;8790;53.590;10.002;2022-07-06T09:19:48;5.37;;;1.17;;
17345;SDS011;8790;53.590;10.002;2022-07-06T09:22:27;1.40;;;0.80;;
17345;SDS011;8790;53.590;10.002;2022-07-06T09:25:02;1.73;;;0.80;;
17345;SDS011;8790;53.590;10.002;2022-07-06T09:27:38;1.27;;;0.60;;
17345;SDS011;8790;53.590;10.002;2022-07-06T09:30:10;2.00;;;0.60;;
17345;SDS011;8790;53.590;10.002;2022-07-06T09:32:45;2.67;;;0.60;;
17345;SDS011;8790;53.590;10.002;2022-07-06T09:35:22;2.07;;;0.80;;
17345;SDS011;8790;53.590;10.002;2022-07-06T09:38:02;1.40;;;0.77;;
17345;SDS011;8790;53.590;10.002;2022-07-06T09:40:36;3.03;;;1.10;;
17345;SDS011;8790;53.590;10.002;2022-07-06T09:43:10;1.70;;;0.80;;
17345;SDS011;8790;53.590;10.002;2022-07-06T09:45:44;1.30;;;0.80;;
17345;SDS011;8790;53.590;10.002;2022-07-06T09:48:17;3.57;;;0.90;;
17345;SDS011;8790;53.590;10.002;2022-07-06T09:50:53;1.83;;;0.97;;
17345;SDS011;8790;53.590;10.002;2022-07-06T09:53:26;1.93;;;1.20;;
17345;SDS011;8790;53.590;10.002;2022-07-06T09:55:58;2.47;;;1.10;;
17345;SDS011;8790;53.590;10.002;2022-07-06T09:58:31;2.67;;;1.23;;
17345;SDS011;8790;53.590;10.002;2022-07-06T10:01:08;2.47;;;1.30;;
17345;SDS011;8790;53.590;10.002;2022-07-06T10:03:40;2.60;;;1.37;;
17345;SDS011;8790;53.590;10.002;2022-07-06T10:06:13;1.80;;;1.00;;
17345;SDS011;8790;53.590;10.002;2022-07-06T10:08:45;3.77;;;1.30;;
17345;SDS011;8790;53.590;10.002;2022-07-06T10:11:17;2.00;;;1.40;;
17345;SDS011;8790;53.590;10.002;2022-07-06T10:13:49;1.53;;;0.93;;
17345;SDS011;8790;53.590;10.002;2022-07-06T10:16:25;2.60;;;1.40;;
17345;SDS011;8790;53.590;10.002;2022-07-06T10:18:57;1.97;;;0.83;;
17345;SDS011;8790;53.590;10.002;2022-07-06T10:21:31;2.43;;;0.80;;
17345;SDS011;8790;53.590;10.002;2022-07-06T10:24:04;2.27;;;1.10;;
17345;SDS011;8790;53.590;10.002;2022-07-06T10:26:37;2.20;;;0.80;;
17345;SDS011;8790;53.590;10.002;2022-07-06T10:29:09;1.20;;;0.70;;
17345;SDS011;8790;53.590;10.002;2022-07-06T10:31:42;1.60;;;0.60;;
17345;SDS011;8790;53.590;10.002;2022-07-06T10:34:16;2.03;;;0.70;;
17345;SDS011;8790;53.590;10.002;2022-07-06T10:36:52;2.63;;;0.60;;
17345;SDS011;8790;53.590;10.002;2022-07-06T10:39:31;2.20;;;0.70;;
17345;SDS011;8790;53.590;10.002;2022-07-06T10:48:21;1.67;;;0.90;;
17345;SDS011;8790;53.590;10.002;2022-07-06T10:50:53;4.60;;;1.20;;
17345;SDS011;8790;53.590;10.002;2022-07-06T10:53:28;2.10;;;0.90;;
17345;SDS011;8790;53.590;10.002;2022-07-06T10:56:04;3.40;;;1.33;;
17345;SDS011;8790;53.590;10.002;2022-07-06T10:58:38;2.23;;;1.37;;
17345;SDS011;8790;53.590;10.002;2022-07-06T11:01:18;2.93;;;1.23;;
17345;SDS011;8790;53.590;10.002;2022-07-06T11:04:04;4.07;;;1.80;;
17345;SDS011;8790;53.590;10.002;2022-07-06T11:06:37;4.47;;;1.37;;
17345;SDS011;8790;53.590;10.002;2022-07-06T11:09:11;2.67;;;1.30;;
17345;SDS011;8790;53.590;10.002;2022-07-06T11:11:46;2.43;;;1.20;;
17345;SDS011;8790;53.590;10.002;2022-07-06T11:14:18;2.47;;;0.93;;
17345;SDS011;8790;53.590;10.002;2022-07-06T11:17:00;3.33;;;1.30;;
17345;SDS011;8790;53.590;10.002;2022-07-06T11:19:33;3.77;;;1.33;;
17345;SDS011;8790;53.590;10.002;2022-07-06T11:22:06;2.53;;;0.90;;
17345;SDS011;8790;53.590;10.002;2022-07-06T11:24:40;4.60;;;0.87;;
17345;SDS011;8790;53.590;10.002;2022-07-06T11:27:12;3.33;;;0.90;;
17345;SDS011;8790;53.590;10.002;2022-07-06T11:29:44;3.33;;;0.80;;
17345;SDS011;8790;53.590;10.002;2022-07-06T11:32:16;2.70;;;1.13;;
17345;SDS011;8790;53.590;10.002;2022-07-06T11:34:55;3.00;;;0.83;;
17345;SDS011;8790;53.590;10.002;2022-07-06T11:37:28;4.93;;;1.03;;
17345;SDS011;8790;53.590;10.002;2022-07-06T11:40:05;4.50;;;1.20;;
17345;SDS011;8790;53.590;10.002;2022-07-06T11:42:38;3.33;;;1.50;;
17345;SDS011;8790;53.590;10.002;2022-07-06T11:45:10;2.73;;;1.43;;
17345;SDS011;8790;53.590;10.002;2022-07-06T11:47:42;4.40;;;1.00;;
17345;SDS011;8790;53.590;10.002;2022-07-06T11:50:19;3.57;;;1.00;;
17345;SDS011;8790;53.590;10.002;2022-07-06T11:52:50;3.03;;;1.13;;
17345;SDS011;8790;53.590;10.002;2022-07-06T11:55:23;2.73;;;0.90;;
17345;SDS011;8790;53.590;10.002;2022-07-06T11:57:55;2.10;;;0.87;;
17345;SDS011;8790;53.590;10.002;2022-07-06T12:00:31;2.00;;;0.87;;
17345;SDS011;8790;53.590;10.002;2022-07-06T12:03:03;2.07;;;1.10;;
17345;SDS011;8790;53.590;10.002;2022-07-06T12:05:35;3.10;;;0.60;;
17345;SDS011;8790;53.590;10.002;2022-07-06T12:08:07;2.57;;;0.63;;
17345;SDS011;8790;53.590;10.002;2022-07-06T12:10:40;1.97;;;0.87;;
17345;SDS011;8790;53.590;10.002;2022-07-06T12:13:12;2.70;;;0.82;;
17345;SDS011;8790;53.590;10.002;2022-07-06T12:15:44;2.37;;;1.10;;
17345;SDS011;8790;53.590;10.002;2022-07-06T12:18:16;2.27;;;0.90;;
17345;SDS011;8790;53.590;10.002;2022-07-06T12:20:47;3.28;;;0.68;;
17345;SDS011;8790;53.590;10.002;2022-07-06T12:23:19;2.50;;;0.70;;
17345;SDS011;8790;53.590;10.002;2022-07-06T12:25:52;4.53;;;0.90;;
17345;SDS011;8790;53.590;10.002;2022-07-06T12:28:25;3.65;;;0.95;;
17345;SDS011;8790;53.590;10.002;2022-07-06T12:30:57;1.63;;;0.60;;
17345;SDS011;8790;53.590;10.002;2022-07-06T12:33:29;2.78;;;0.63;;
17345;SDS011;8790;53.590;10.002;2022-07-06T12:36:10;2.35;;;0.60;;
17345;SDS011;8790;53.590;10.002;2022-07-06T12:38:44;3.45;;;0.60;;
17345;SDS011;8790;53.590;10.002;2022-07-06T12:41:28;2.90;;;0.57;;
17345;SDS011;8790;53.590;10.002;2022-07-06T12:44:03;2.15;;;0.70;;
17345;SDS011;8790;53.590;10.002;2022-07-06T12:46:39;2.38;;;0.70;;
17345;SDS011;8790;53.590;10.002;2022-07-06T12:49:13;1.88;;;0.60;;
17345;SDS011;8790;53.590;10.002;2022-07-06T12:54:41;3.22;;;0.63;;
17345;SDS011;8790;53.590;10.002;2022-07-06T12:57:15;3.63;;;0.65;;
17345;SDS011;8790;53.590;10.002;2022-07-06T12:59:48;1.35;;;0.50;;
17345;SDS011;8790;53.590;10.002;2022-07-06T13:02:29;2.70;;;0.50;;
17345;SDS011;8790;53.590;10.002;2022-07-06T13:05:03;4.00;;;0.60;;
17345;SDS011;8790;53.590;10.002;2022-07-06T13:07:37;3.40;;;0.65;;
17345;SDS011;8790;53.590;10.002;2022-07-06T13:10:15;2.83;;;0.50;;
17345;SDS011;8790;53.590;10.002;2022-07-06T13:12:49;5.00;;;0.80;;
17345;SDS011;8790;53.590;10.002;2022-07-06T13:15:21;2.25;;;0.85;;
17345;SDS011;8790;53.590;10.002;2022-07-06T13:17:52;3.85;;;0.57;;
17345;SDS011;8790;53.590;10.002;2022-07-06T13:20:24;2.55;;;0.60;;
17345;SDS011;8790;53.590;10.002;2022-07-06T13:22:56;2.63;;;0.75;;
17345;SDS011;8790;53.590;10.002;2022-07-06T13:25:28;1.33;;;0.60;;
17345;SDS011;8790;53.590;10.002;2022-07-06T13:28:01;3.67;;;0.80;;
17345;SDS011;8790;53.590;10.002;2022-07-06T13:30:32;5.25;;;0.75;;
17345;SDS011;8790;53.590;10.002;2022-07-06T13:33:04;1.95;;;0.90;;
17345;SDS011;8790;53.590;10.002;2022-07-06T13:35:36;2.60;;;0.60;;
17345;SDS011;8790;53.590;10.002;2022-07-06T13:38:08;2.35;;;0.60;;
17345;SDS011;8790;53.590;10.002;2022-07-06T13:40:39;2.22;;;1.00;;
17345;SDS011;8790;53.590;10.002;2022-07-06T13:43:12;1.40;;;0.40;;
17345;SDS011;8790;53.590;10.002;2022-07-06T13:45:45;1.40;;;0.50;;
17345;SDS011;8790;53.590;10.002;2022-07-06T13:48:17;2.15;;;0.70;;
17345;SDS011;8790;53.590;10.002;2022-07-06T13:50:48;1.95;;;0.70;;
17345;SDS011;8790;53.590;10.002;2022-07-06T13:53:20;1.52;;;0.50;;
17345;SDS011;8790;53.590;10.002;2022-07-06T13:55:52;1.95;;;0.60;;
17345;SDS011;8790;53.590;10.002;2022-07-06T13:58:25;1.35;;;0.50;;
17345;SDS011;8790;53.590;10.002;2022-07-06T14:00:57;1.45;;;0.50;;
17345;SDS011;8790;53.590;10.002;2022-07-06T14:03:29;2.15;;;0.63;;
17345;SDS011;8790;53.590;10.002;2022-07-06T14:06:01;2.60;;;0.70;;
17345;SDS011;8790;53.590;10.002;2022-07-06T14:08:33;4.68;;;2.08;;
17345;SDS011;8790;53.590;10.002;2022-07-06T14:11:06;4.18;;;2.97;;
17345;SDS011;8790;53.590;10.002;2022-07-06T14:13:40;2.05;;;0.65;;
17345;SDS011;8790;53.590;10.002;2022-07-06T14:16:12;5.20;;;1.05;;
17345;SDS011;8790;53.590;10.002;2022-07-06T14:18:44;1.95;;;0.80;;
17345;SDS011;8790;53.590;10.002;2022-07-06T14:21:15;3.25;;;0.60;;
17345;SDS011;8790;53.590;10.002;2022-07-06T14:23:47;1.35;;;0.60;;
17345;SDS011;8790;53.590;10.002;2022-07-06T14:26:19;2.67;;;1.00;;
17345;SDS011;8790;53.590;10.002;2022-07-06T14:28:52;0.65;;;0.38;;
17345;SDS011;8790;53.590;10.002;2022-07-06T14:31:24;1.80;;;0.50;;
17345;SDS011;8790;53.590;10.002;2022-07-06T14:33:56;0.95;;;0.60;;
17345;SDS011;8790;53.590;10.002;2022-07-06T14:36:27;2.67;;;0.60;;
17345;SDS011;8790;53.590;10.002;2022-07-06T14:38:59;2.40;;;0.50;;
17345;SDS011;8790;53.590;10.002;2022-07-06T14:41:31;1.40;;;0.40;;
17345;SDS011;8790;53.590;10.002;2022-07-06T14:44:04;5.18;;;0.68;;
17345;SDS011;8790;53.590;10.002;2022-07-06T14:46:36;1.50;;;1.15;;
17345;SDS011;8790;53.590;10.002;2022-07-06T14:49:07;1.55;;;0.35;;
17345;SDS011;8790;53.590;10.002;2022-07-06T14:51:39;1.40;;;0.43;;
17345;SDS011;8790;53.590;10.002;2022-07-06T14:54:11;2.65;;;0.70;;
17345;SDS011;8790;53.590;10.002;2022-07-06T14:56:43;2.55;;;0.60;;
17345;SDS011;8790;53.590;10.002;2022-07-06T14:59:16;1.10;;;0.63;;
17345;SDS011;8790;53.590;10.002;2022-07-06T15:01:48;3.38;;;0.50;;
17345;SDS011;8790;53.590;10.002;2022-07-06T15:04:20;3.58;;;0.50;;
17345;SDS011;8790;53.590;10.002;2022-07-06T15:06:51;2.42;;;0.50;;
17345;SDS011;8790;53.590;10.002;2022-07-06T15:09:24;1.02;;;0.40;;
17345;SDS011;8790;53.590;10.002;2022-07-06T15:11:58;2.15;;;0.50;;
17345;SDS011;8790;53.590;10.002;2022-07-06T15:14:31;3.17;;;0.52;;
17345;SDS011;8790;53.590;10.002;2022-07-06T15:17:03;1.02;;;0.40;;
17345;SDS011;8790;53.590;10.002;2022-07-06T15:19:35;2.65;;;0.60;;
17345;SDS011;8790;53.590;10.002;2022-07-06T15:22:07;4.22;;;0.77;;
17345;SDS011;8790;53.590;10.002;2022-07-06T15:24:39;2.03;;;0.60;;
17345;SDS011;8790;53.590;10.002;2022-07-06T15:27:11;2.05;;;0.73;;
17345;SDS011;8790;53.590;10.002;2022-07-06T15:29:44;3.38;;;0.70;;
17345;SDS011;8790;53.590;10.002;2022-07-06T15:32:16;3.00;;;0.70;;
17345;SDS011;8790;53.590;10.002;2022-07-06T15:34:48;1.98;;;0.80;;
17345;SDS011;8790;53.590;10.002;2022-07-06T15:37:20;2.90;;;0.73;;